createdAt,value
2022-09-23T00:01:04.815Z,6.70
2022-09-23T00:06:10.809Z,6.70
2022-09-23T00:11:17.239Z,6.60
2022-09-23T00:16:23.117Z,6.60
2022-09-23T00:21:26.507Z,6.50
2022-09-23T00:26:31.066Z,6.40
2022-09-23T00:31:34.831Z,6.30
2022-09-23T00:36:38.684Z,6.20
2022-09-23T00:41:43.287Z,6.10
2022-09-23T00:46:46.531Z,6.10
2022-09-23T00:51:55.260Z,6.00
2022-09-23T00:57:01.580Z,6.20
2022-09-23T01:02:05.801Z,5.90
2022-09-23T01:07:09.062Z,5.80
2022-09-23T01:12:23.509Z,5.90
2022-09-23T01:17:39.441Z,6.00
2022-09-23T01:22:50.078Z,5.80
2022-09-23T01:28:13.356Z,5.80
2022-09-23T01:33:25.195Z,5.80
2022-09-23T01:38:36.959Z,5.70
2022-09-23T01:43:48.166Z,5.70
2022-09-23T01:48:59.991Z,5.70
2022-09-23T01:54:08.421Z,5.70
2022-09-23T01:59:15.945Z,5.60
2022-09-23T02:04:26.305Z,5.60
2022-09-23T02:09:37.275Z,5.50
2022-09-23T02:14:48.527Z,5.40
2022-09-23T02:19:55.621Z,5.30
2022-09-23T02:24:59.493Z,5.30
2022-09-23T02:30:09.612Z,5.30
2022-09-23T02:35:18.993Z,9.10
2022-09-23T02:40:26.362Z,5.30
2022-09-23T02:45:29.824Z,5.20
2022-09-23T02:50:35.149Z,5.20
2022-09-23T02:55:38.339Z,5.20
2022-09-23T03:00:53.982Z,5.20
2022-09-23T03:06:01.997Z,5.20
2022-09-23T03:11:08.622Z,5.20
2022-09-23T03:16:18.181Z,5.10
2022-09-23T03:21:28.418Z,5.10
2022-09-23T03:26:35.140Z,5.10
2022-09-23T03:31:42.554Z,5.10
2022-09-23T03:36:53.972Z,5.30
2022-09-23T03:42:00.061Z,8.70
2022-09-23T03:47:04.544Z,4.80
2022-09-23T03:52:09.329Z,4.90
2022-09-23T03:57:13.381Z,5.10
2022-09-23T04:02:17.197Z,4.80
2022-09-23T04:07:21.773Z,4.90
2022-09-23T04:12:25.006Z,4.80
2022-09-23T04:17:28.470Z,4.90
2022-09-23T04:22:34.498Z,4.70
2022-09-23T04:27:38.130Z,4.70
2022-09-23T04:32:41.498Z,4.80
2022-09-23T04:37:49.136Z,4.70
2022-09-23T04:42:52.369Z,4.50
2022-09-23T04:47:58.482Z,4.40
2022-09-23T04:53:03.421Z,4.40
2022-09-23T04:58:07.641Z,4.40
2022-09-23T05:03:11.646Z,4.30
2022-09-23T05:08:16.390Z,4.40
2022-09-23T05:13:19.708Z,4.50
2022-09-23T05:18:22.890Z,7.40
2022-09-23T05:23:27.758Z,4.50
2022-09-23T05:28:32.986Z,4.50
2022-09-23T05:33:37.642Z,4.60
2022-09-23T05:38:42.397Z,4.90
2022-09-23T05:43:45.827Z,5.00
2022-09-23T05:48:49.117Z,5.20
2022-09-23T05:53:55.411Z,5.50
2022-09-23T05:59:00.585Z,6.60
2022-09-23T06:04:05.599Z,7.40
2022-09-23T06:09:13.476Z,8.10
2022-09-23T06:14:16.810Z,8.60
2022-09-23T06:19:20.047Z,9.00
2022-09-23T06:24:30.856Z,9.50
2022-09-23T06:29:34.685Z,9.90
2022-09-23T06:34:50.217Z,10.10
2022-09-23T06:39:56.666Z,10.50
2022-09-23T06:45:02.215Z,10.60
2022-09-23T06:50:05.995Z,11.10
2022-09-23T06:55:11.405Z,11.50
2022-09-23T07:00:15.585Z,12.50
2022-09-23T07:05:18.899Z,12.80
2022-09-23T07:10:23.485Z,12.70
2022-09-23T07:15:26.809Z,12.50
2022-09-23T07:20:30.024Z,13.20
2022-09-23T07:25:34.755Z,13.50
2022-09-23T07:30:39.273Z,13.60
2022-09-23T07:35:44.143Z,13.60
2022-09-23T07:40:49.223Z,14.10
2022-09-23T07:45:52.570Z,14.50
2022-09-23T07:50:55.917Z,14.60
2022-09-23T07:56:00.527Z,15.20
2022-09-23T08:01:06.851Z,14.40
2022-09-23T08:06:12.104Z,15.10
2022-09-23T08:11:16.742Z,15.60
2022-09-23T08:16:20.227Z,16.10
2022-09-23T08:21:24.341Z,15.40
2022-09-23T08:26:30.980Z,15.40
2022-09-23T08:31:34.192Z,15.90
2022-09-23T08:36:37.664Z,16.50
2022-09-23T08:41:52.884Z,16.60
2022-09-23T08:47:08.459Z,16.80
2022-09-23T08:52:18.765Z,17.20
2022-09-23T08:57:33.263Z,15.90
2022-09-23T09:02:37.724Z,16.20
2022-09-23T09:07:43.167Z,16.50
2022-09-23T09:12:50.463Z,16.60
2022-09-23T09:18:02.431Z,17.60
2022-09-23T09:23:16.160Z,17.80
2022-09-23T09:28:26.664Z,18.80
2022-09-23T09:33:38.564Z,18.80
2022-09-23T09:38:44.230Z,16.00
2022-09-23T09:43:59.270Z,16.40
2022-09-23T09:49:08.545Z,18.40
2022-09-23T09:54:20.561Z,18.60
2022-09-23T09:59:29.774Z,19.70
2022-09-23T10:04:36.473Z,20.00
2022-09-23T10:09:42.942Z,19.20
2022-09-23T10:14:50.606Z,20.60
2022-09-23T10:20:00.901Z,21.90
2022-09-23T10:25:08.783Z,21.10
2022-09-23T10:30:22.986Z,22.10
2022-09-23T10:35:27.112Z,20.50
2022-09-23T10:40:51.493Z,21.70
2022-09-23T10:46:20.683Z,21.80
2022-09-23T10:51:27.907Z,22.20
2022-09-23T10:56:36.688Z,22.70
2022-09-23T11:01:51.053Z,22.00
2022-09-23T11:07:22.961Z,22.90
2022-09-23T11:12:37.301Z,21.80
2022-09-23T11:18:07.803Z,22.30
2022-09-23T11:23:55.394Z,21.60
2022-09-23T11:29:21.082Z,22.60
2022-09-23T11:34:41.928Z,24.20
2022-09-23T11:39:50.673Z,23.20
2022-09-23T11:44:57.811Z,22.70
2022-09-23T11:50:06.712Z,23.00
2022-09-23T11:55:22.684Z,22.90
2022-09-23T12:00:30.309Z,23.50
2022-09-23T12:05:39.485Z,19.70
2022-09-23T12:10:51.017Z,21.70
2022-09-23T12:16:07.284Z,22.40
2022-09-23T12:21:53.320Z,19.40
2022-09-23T12:27:00.624Z,21.60
2022-09-23T12:32:07.504Z,20.80
2022-09-23T12:37:12.185Z,21.30
2022-09-23T12:42:19.023Z,22.00
2022-09-23T12:47:40.002Z,22.90
2022-09-23T12:52:44.613Z,23.40
2022-09-23T12:57:48.253Z,23.30
2022-09-23T13:03:16.030Z,22.60
2022-09-23T13:08:24.190Z,23.50
2022-09-23T13:13:31.750Z,23.70
2022-09-23T13:18:56.249Z,21.50
2022-09-23T13:24:20.890Z,23.50
2022-09-23T13:29:28.284Z,23.20
2022-09-23T13:34:34.027Z,26.90
2022-09-23T13:39:38.587Z,23.70
2022-09-23T13:44:42.304Z,25.70
2022-09-23T13:49:48.057Z,27.70
2022-09-23T13:54:52.718Z,27.50
2022-09-23T13:59:56.217Z,27.60
2022-09-23T14:04:59.636Z,25.40
2022-09-23T14:10:08.222Z,25.90
2022-09-23T14:15:15.613Z,26.50
2022-09-23T14:20:21.607Z,32.30
2022-09-23T14:25:26.642Z,27.50
2022-09-23T14:30:30.719Z,24.70
2022-09-23T14:35:42.861Z,25.00
2022-09-23T14:41:15.626Z,25.90
2022-09-23T14:46:20.445Z,26.60
2022-09-23T14:51:30.802Z,26.50
2022-09-23T14:56:43.389Z,23.40
2022-09-23T15:01:46.656Z,23.90
2022-09-23T15:06:54.333Z,24.60
2022-09-23T15:12:05.629Z,24.70
2022-09-23T15:17:19.250Z,25.10
2022-09-23T15:22:22.633Z,26.50
2022-09-23T15:27:34.735Z,26.60
2022-09-23T15:32:40.646Z,26.30
2022-09-23T15:37:44.190Z,26.50
2022-09-23T15:42:51.606Z,25.80
2022-09-23T15:47:55.847Z,24.30
2022-09-23T15:52:59.509Z,24.30
2022-09-23T15:58:04.134Z,23.30
2022-09-23T16:03:07.421Z,21.80
2022-09-23T16:08:11.747Z,20.40
2022-09-23T16:13:16.681Z,19.20
2022-09-23T16:18:20.211Z,18.40
2022-09-23T16:23:34.647Z,17.90
2022-09-23T16:28:39.563Z,17.60
2022-09-23T16:33:43.227Z,17.10
2022-09-23T16:38:47.372Z,16.90
2022-09-23T16:43:52.134Z,16.70
2022-09-23T16:48:56.268Z,16.50
2022-09-23T16:54:00.341Z,16.30
2022-09-23T16:59:05.362Z,15.90
2022-09-23T17:04:10.634Z,15.50
2022-09-23T17:09:13.947Z,15.40
2022-09-23T17:14:18.571Z,15.10
2022-09-23T17:19:21.752Z,14.80
2022-09-23T17:24:25.221Z,14.50
2022-09-23T17:29:30.397Z,14.10
2022-09-23T17:34:33.633Z,13.60
2022-09-23T17:39:36.879Z,13.20
2022-09-23T17:44:42.517Z,13.00
2022-09-23T17:49:46.997Z,12.70
2022-09-23T17:54:50.273Z,12.60
2022-09-23T17:59:56.124Z,12.50
2022-09-23T18:04:59.329Z,12.40
2022-09-23T18:10:02.555Z,12.20
2022-09-23T18:15:10.397Z,12.00
2022-09-23T18:20:13.613Z,11.90
2022-09-23T18:25:37.721Z,11.80
2022-09-23T18:30:44.399Z,11.80
2022-09-23T18:35:47.577Z,11.60
2022-09-23T18:40:54.298Z,11.50
2022-09-23T18:46:00.665Z,11.40
2022-09-23T18:51:03.981Z,11.30
2022-09-23T18:56:08.738Z,11.40
2022-09-23T19:01:13.793Z,11.20
2022-09-23T19:06:21.252Z,11.10
2022-09-23T19:11:25.430Z,10.90
2022-09-23T19:16:31.791Z,10.90
2022-09-23T19:21:35.471Z,10.80
2022-09-23T19:26:40.865Z,10.70
2022-09-23T19:31:45.587Z,10.50
2022-09-23T19:36:49.290Z,10.40
2022-09-23T19:41:54.525Z,7.90
2022-09-23T19:46:59.187Z,10.20
2022-09-23T19:52:02.765Z,10.30
2022-09-23T19:57:06.066Z,10.00
2022-09-23T20:02:12.625Z,10.00
2022-09-23T20:07:16.277Z,10.10
2022-09-23T20:12:19.474Z,9.90
2022-09-23T20:17:24.561Z,9.80
2022-09-23T20:22:33.103Z,9.70
2022-09-23T20:27:37.078Z,9.70
2022-09-23T20:32:44.618Z,9.70
2022-09-23T20:37:48.136Z,9.70
2022-09-23T20:42:51.362Z,14.50
2022-09-23T20:47:59.355Z,9.70
2022-09-23T20:53:02.664Z,9.60
2022-09-23T20:58:05.841Z,9.70
2022-09-23T21:03:10.422Z,9.60
2022-09-23T21:08:13.671Z,9.40
2022-09-23T21:13:16.880Z,9.40
2022-09-23T21:18:22.654Z,9.40
2022-09-23T21:23:27.332Z,9.30
2022-09-23T21:28:34.184Z,9.20
2022-09-23T21:33:38.893Z,9.30
2022-09-23T21:38:42.104Z,9.40
2022-09-23T21:43:45.642Z,9.50
2022-09-23T21:48:53.360Z,9.40
2022-09-23T21:53:58.250Z,9.40
2022-09-23T21:59:01.966Z,9.50
2022-09-23T22:04:10.295Z,9.50
2022-09-23T22:09:16.999Z,9.60
2022-09-23T22:14:26.180Z,9.70
2022-09-23T22:19:35.014Z,9.60
2022-09-23T22:24:38.678Z,9.60
2022-09-23T22:29:59.504Z,9.50
2022-09-23T22:35:04.456Z,9.60
2022-09-23T22:40:10.554Z,9.70
2022-09-23T22:45:14.480Z,9.60
2022-09-23T22:50:19.173Z,9.60
2022-09-23T22:55:22.402Z,9.80
2022-09-23T23:00:26.873Z,9.70
2022-09-23T23:05:32.156Z,9.60
2022-09-23T23:10:37.754Z,9.70
2022-09-23T23:15:41.310Z,9.60
2022-09-23T23:20:45.954Z,9.60
2022-09-23T23:25:49.190Z,9.70
2022-09-23T23:30:52.456Z,9.60
2022-09-23T23:35:57.079Z,9.60
2022-09-23T23:41:03.357Z,9.50
2022-09-23T23:46:07.716Z,9.60
2022-09-23T23:51:13.367Z,12.50
2022-09-23T23:56:18.552Z,9.40
